createdAt,value
2017-06-09T00:02:17.247Z,26.10
2017-06-09T00:04:45.527Z,24.50
2017-06-09T00:07:13.723Z,25.27
2017-06-09T00:09:41.849Z,24.20
2017-06-09T00:12:10.212Z,23.20
2017-06-09T00:14:38.451Z,22.13
2017-06-09T00:17:06.644Z,22.47
2017-06-09T00:19:35.012Z,24.10
2017-06-09T00:22:03.235Z,23.90
2017-06-09T00:24:31.408Z,22.70
2017-06-09T00:26:59.707Z,21.40
2017-06-09T00:29:27.899Z,22.27
2017-06-09T00:31:56.248Z,20.70
2017-06-09T00:34:24.623Z,22.40
2017-06-09T00:36:52.784Z,25.23
2017-06-09T00:39:21.148Z,23.07
2017-06-09T00:41:49.455Z,23.13
2017-06-09T00:44:17.603Z,22.73
2017-06-09T00:46:45.723Z,23.77
2017-06-09T00:49:13.977Z,22.97
2017-06-09T00:51:42.171Z,22.43
2017-06-09T00:54:10.451Z,23.80
2017-06-09T00:56:38.787Z,22.70
2017-06-09T00:59:06.996Z,22.43
2017-06-09T01:01:35.151Z,24.13
2017-06-09T01:04:03.496Z,23.60
2017-06-09T01:06:31.614Z,23.10
2017-06-09T01:08:59.816Z,21.43
2017-06-09T01:11:28.148Z,23.93
2017-06-09T01:13:56.391Z,22.80
2017-06-09T01:16:24.547Z,22.20
2017-06-09T01:18:52.843Z,21.17
2017-06-09T01:21:21.115Z,23.83
2017-06-09T01:23:49.392Z,23.37
2017-06-09T01:26:17.691Z,23.53
2017-06-09T01:28:45.841Z,19.93
2017-06-09T01:31:13.979Z,19.40
2017-06-09T01:33:42.283Z,20.00
2017-06-09T01:36:10.515Z,18.70
2017-06-09T01:38:38.712Z,20.63
2017-06-09T01:41:07.151Z,19.60
2017-06-09T01:43:35.396Z,17.57
2017-06-09T01:46:03.634Z,20.10
2017-06-09T01:48:31.940Z,18.00
2017-06-09T01:51:00.115Z,16.63
2017-06-09T01:53:28.243Z,17.07
2017-06-09T01:55:56.591Z,17.97
2017-06-09T01:58:24.792Z,17.33
2017-06-09T02:00:53.044Z,16.60
2017-06-09T02:03:21.347Z,18.40
2017-06-09T02:05:49.503Z,18.63
2017-06-09T02:08:17.743Z,18.53
2017-06-09T02:10:46.096Z,16.63
2017-06-09T02:13:14.308Z,18.17
2017-06-09T02:15:42.471Z,17.63
2017-06-09T02:18:10.767Z,18.67
2017-06-09T02:20:38.958Z,19.23
2017-06-09T02:23:07.111Z,16.83
2017-06-09T02:25:35.495Z,18.90
2017-06-09T02:28:03.683Z,19.43
2017-06-09T02:30:31.875Z,19.20
2017-06-09T02:33:00.197Z,17.40
2017-06-09T02:35:28.415Z,18.33
2017-06-09T02:37:56.575Z,18.63
2017-06-09T02:40:24.941Z,18.17
2017-06-09T02:42:53.323Z,19.80
2017-06-09T02:45:21.555Z,18.60
2017-06-09T02:47:49.883Z,20.00
2017-06-09T02:50:18.095Z,20.43
2017-06-09T02:52:46.311Z,20.50
2017-06-09T02:55:14.639Z,19.00
2017-06-09T02:57:42.771Z,18.93
2017-06-09T03:00:11.052Z,20.20
2017-06-09T03:02:39.415Z,17.90
2017-06-09T03:05:07.659Z,21.13
2017-06-09T03:07:35.847Z,22.20
2017-06-09T03:10:04.094Z,25.37
2017-06-09T03:12:32.395Z,21.50
2017-06-09T03:15:00.677Z,21.43
2017-06-09T03:17:29.043Z,24.37
2017-06-09T03:19:57.195Z,24.63
2017-06-09T03:22:25.348Z,25.53
2017-06-09T03:24:53.699Z,27.37
2017-06-09T03:27:21.895Z,26.77
2017-06-09T03:29:50.039Z,26.50
2017-06-09T03:32:24.142Z,24.00
2017-06-09T03:34:52.339Z,25.73
2017-06-09T03:37:20.592Z,24.90
2017-06-09T03:39:48.984Z,24.60
2017-06-09T03:42:17.192Z,24.70
2017-06-09T03:44:45.535Z,23.13
2017-06-09T03:47:13.875Z,23.90
2017-06-09T03:49:42.039Z,23.17
2017-06-09T03:52:10.283Z,23.10
2017-06-09T03:54:38.611Z,23.67
2017-06-09T03:57:06.803Z,24.13
2017-06-09T03:59:34.947Z,22.33
2017-06-09T04:02:03.275Z,20.30
2017-06-09T04:04:31.503Z,20.23
2017-06-09T04:06:59.703Z,22.63
2017-06-09T04:09:28.083Z,18.03
2017-06-09T04:11:56.287Z,19.37
2017-06-09T04:14:24.479Z,18.37
2017-06-09T04:16:52.811Z,15.00
2017-06-09T04:19:21.003Z,16.80
2017-06-09T04:21:49.227Z,13.83
2017-06-09T04:24:17.635Z,13.77
2017-06-09T04:26:45.830Z,15.40
2017-06-09T04:29:14.015Z,16.30
2017-06-09T04:31:42.335Z,17.97
2017-06-09T04:34:10.558Z,15.80
2017-06-09T04:36:38.754Z,14.60
2017-06-09T04:39:07.071Z,15.00
2017-06-09T04:41:35.256Z,13.80
2017-06-09T04:44:03.483Z,14.83
2017-06-09T04:46:31.951Z,15.43
2017-06-09T04:49:00.148Z,13.43
2017-06-09T04:51:28.399Z,13.43
2017-06-09T04:53:56.703Z,13.10
2017-06-09T04:56:24.811Z,14.93
2017-06-09T04:58:52.967Z,14.80
2017-06-09T05:01:21.311Z,14.27
2017-06-09T05:03:49.456Z,13.83
2017-06-09T05:06:17.651Z,14.47
2017-06-09T05:08:46.059Z,15.63
2017-06-09T05:11:14.272Z,13.80
2017-06-09T05:13:42.371Z,15.40
2017-06-09T05:16:10.632Z,16.17
2017-06-09T05:18:38.923Z,16.13
2017-06-09T05:21:11.132Z,16.60
2017-06-09T05:23:44.963Z,17.63
2017-06-09T05:26:13.314Z,15.03
2017-06-09T05:28:41.711Z,17.10
2017-06-09T05:31:10.140Z,18.27
2017-06-09T05:33:38.424Z,15.80
2017-06-09T05:36:06.716Z,18.70
2017-06-09T05:38:34.919Z,16.93
2017-06-09T05:41:03.204Z,15.70
2017-06-09T05:43:31.419Z,17.60
2017-06-09T05:45:59.698Z,16.73
2017-06-09T05:48:28.173Z,18.48
2017-06-09T05:50:56.300Z,16.90
2017-06-09T05:53:24.499Z,15.65
2017-06-09T05:55:52.883Z,16.37
2017-06-09T05:58:20.995Z,14.85
2017-06-09T06:00:49.195Z,13.35
2017-06-09T06:03:17.532Z,15.13
2017-06-09T06:05:45.739Z,11.17
2017-06-09T06:08:13.918Z,12.00
2017-06-09T06:10:42.195Z,12.23
2017-06-09T06:13:10.399Z,14.00
2017-06-09T06:15:38.527Z,13.23
2017-06-09T06:18:06.853Z,11.70
2017-06-09T06:20:35.035Z,12.00
2017-06-09T06:23:03.227Z,11.60
2017-06-09T06:25:31.643Z,11.20
2017-06-09T06:27:59.901Z,11.47
2017-06-09T06:30:28.103Z,10.40
2017-06-09T06:32:56.379Z,10.45
2017-06-09T06:35:24.572Z,9.20
2017-06-09T06:37:52.711Z,11.90
2017-06-09T06:40:21.031Z,11.77
2017-06-09T06:42:49.155Z,9.63
2017-06-09T06:45:17.359Z,10.23
2017-06-09T06:47:45.743Z,9.13
2017-06-09T06:50:14.115Z,11.12
2017-06-09T06:52:42.294Z,11.02
2017-06-09T06:55:10.627Z,12.00
2017-06-09T06:57:38.854Z,9.70
2017-06-09T07:00:07.105Z,9.63
2017-06-09T07:02:35.427Z,9.90
2017-06-09T07:05:03.580Z,9.98
2017-06-09T07:07:31.807Z,9.97
2017-06-09T07:10:00.119Z,8.80
2017-06-09T07:12:28.707Z,10.00
2017-06-09T07:14:56.815Z,8.37
2017-06-09T07:17:25.147Z,8.87
2017-06-09T07:19:53.259Z,8.90
2017-06-09T07:22:21.558Z,8.60
2017-06-09T07:24:49.798Z,8.77
2017-06-09T07:27:17.992Z,9.57
2017-06-09T07:29:46.207Z,8.37
2017-06-09T07:32:14.391Z,8.67
2017-06-09T07:34:42.579Z,8.57
2017-06-09T07:37:10.849Z,8.90
2017-06-09T07:39:39.020Z,8.27
2017-06-09T07:42:07.219Z,8.52
2017-06-09T07:44:35.419Z,8.07
2017-06-09T07:47:03.784Z,8.30
2017-06-09T07:49:32.011Z,8.50
2017-06-09T07:52:00.291Z,9.00
2017-06-09T07:54:28.675Z,9.13
2017-06-09T07:56:56.923Z,9.93
2017-06-09T07:59:25.164Z,11.40
2017-06-09T08:01:53.535Z,11.10
2017-06-09T08:04:21.780Z,12.60
2017-06-09T08:06:49.991Z,11.33
2017-06-09T08:09:18.368Z,11.03
2017-06-09T08:11:47.779Z,12.00
2017-06-09T08:14:16.098Z,11.20
2017-06-09T08:16:44.435Z,12.40
2017-06-09T08:19:12.627Z,10.63
2017-06-09T08:21:40.867Z,10.93
2017-06-09T08:24:09.175Z,11.00
2017-06-09T08:26:37.424Z,10.20
2017-06-09T08:29:05.620Z,12.17
2017-06-09T08:31:33.950Z,10.70
2017-06-09T08:34:02.240Z,10.97
2017-06-09T08:36:30.475Z,12.00
2017-06-09T08:38:58.824Z,13.67
2017-06-09T08:41:26.967Z,13.00
2017-06-09T08:43:55.787Z,13.07
2017-06-09T08:46:24.136Z,14.30
2017-06-09T08:48:52.387Z,14.10
2017-06-09T08:51:20.607Z,15.43
2017-06-09T08:53:49.124Z,14.60
2017-06-09T08:56:17.355Z,14.70
2017-06-09T08:58:45.519Z,14.57
2017-06-09T09:01:13.808Z,15.80
2017-06-09T09:03:42.040Z,13.97
2017-06-09T09:06:10.195Z,16.07
2017-06-09T09:08:38.543Z,13.60
2017-06-09T09:11:06.731Z,15.77
2017-06-09T09:13:34.963Z,14.13
2017-06-09T09:16:03.341Z,14.27
2017-06-09T09:18:31.579Z,12.57
2017-06-09T09:20:59.724Z,12.93
2017-06-09T09:23:28.064Z,13.93
2017-06-09T09:25:56.223Z,12.83
2017-06-09T09:28:24.379Z,14.67
2017-06-09T09:30:52.619Z,11.97
2017-06-09T09:33:20.863Z,12.77
2017-06-09T09:35:49.123Z,13.60
2017-06-09T09:38:17.508Z,12.53
2017-06-09T09:40:45.672Z,11.50
2017-06-09T09:43:13.887Z,11.53
2017-06-09T09:45:42.271Z,12.73
2017-06-09T09:48:10.402Z,11.90
2017-06-09T09:50:38.714Z,12.17
2017-06-09T09:53:07.011Z,12.53
2017-06-09T09:55:35.339Z,12.53
2017-06-09T09:58:03.564Z,13.50
2017-06-09T10:00:31.844Z,13.87
2017-06-09T10:03:00.055Z,14.30
2017-06-09T10:05:28.203Z,13.97
2017-06-09T10:07:56.498Z,15.00
2017-06-09T10:10:24.603Z,13.07
2017-06-09T10:12:52.843Z,13.10
2017-06-09T10:15:21.132Z,12.90
2017-06-09T10:17:49.320Z,14.10
2017-06-09T10:20:17.580Z,14.23
2017-06-09T10:22:45.828Z,11.87
2017-06-09T10:25:14.014Z,12.70
2017-06-09T10:27:42.275Z,12.83
2017-06-09T10:30:10.611Z,12.47
2017-06-09T10:32:38.901Z,12.83
2017-06-09T10:35:07.125Z,12.03
2017-06-09T10:37:35.563Z,13.90
2017-06-09T10:40:03.732Z,12.60
2017-06-09T10:42:31.990Z,14.67
2017-06-09T10:45:00.319Z,12.70
2017-06-09T10:47:28.562Z,12.57
2017-06-09T10:49:56.874Z,12.70
2017-06-09T10:52:25.259Z,11.60
2017-06-09T10:54:53.501Z,12.80
2017-06-09T10:57:21.791Z,12.03
2017-06-09T10:59:50.135Z,12.67
2017-06-09T11:02:18.296Z,11.70
2017-06-09T11:04:46.494Z,13.00
2017-06-09T11:07:14.895Z,12.17
2017-06-09T11:09:43.123Z,11.97
2017-06-09T11:12:11.574Z,12.60
2017-06-09T11:14:40.010Z,11.00
2017-06-09T11:17:08.220Z,12.10
2017-06-09T11:19:36.403Z,11.97
2017-06-09T11:22:04.855Z,10.73
2017-06-09T11:24:33.186Z,12.30
2017-06-09T11:27:01.569Z,11.17
2017-06-09T11:29:29.911Z,10.70
2017-06-09T11:31:58.043Z,12.70
2017-06-09T11:34:26.483Z,10.30
2017-06-09T11:36:55.007Z,10.97
2017-06-09T11:39:23.363Z,11.73
2017-06-09T11:41:51.580Z,11.00
2017-06-09T11:44:19.926Z,9.40
2017-06-09T11:46:48.159Z,9.60
2017-06-09T11:49:16.419Z,11.13
2017-06-09T11:51:45.265Z,11.17
2017-06-09T11:54:13.555Z,10.30
2017-06-09T11:56:41.687Z,9.90
2017-06-09T11:59:10.276Z,9.90
2017-06-09T12:01:38.620Z,9.87
2017-06-09T12:04:06.811Z,9.97
2017-06-09T12:06:35.187Z,10.70
2017-06-09T12:09:03.683Z,10.03
2017-06-09T12:11:31.907Z,10.20
2017-06-09T12:14:00.339Z,11.50
2017-06-09T12:16:28.587Z,10.63
2017-06-09T12:18:57.105Z,11.13
2017-06-09T12:21:25.403Z,12.10
2017-06-09T12:23:53.719Z,12.03
2017-06-09T12:26:21.866Z,11.97
2017-06-09T12:28:50.296Z,12.10
2017-06-09T12:31:18.479Z,11.47
2017-06-09T12:33:46.741Z,10.80
2017-06-09T12:36:15.095Z,12.53
2017-06-09T12:38:43.391Z,12.93
2017-06-09T12:41:11.668Z,13.20
2017-06-09T12:43:39.927Z,12.97
2017-06-09T12:46:08.271Z,11.90
2017-06-09T12:48:36.411Z,12.33
2017-06-09T12:51:04.791Z,12.33
2017-06-09T12:53:33.083Z,11.57
2017-06-09T12:56:01.271Z,12.73
2017-06-09T12:58:29.655Z,13.80
2017-06-09T13:00:58.015Z,13.00
2017-06-09T13:03:26.198Z,13.10
2017-06-09T13:05:54.551Z,15.07
2017-06-09T13:08:22.718Z,13.90
2017-06-09T13:10:51.007Z,14.57
2017-06-09T13:13:19.438Z,15.07
2017-06-09T13:15:47.653Z,14.30
2017-06-09T13:18:15.839Z,14.70
2017-06-09T13:20:44.213Z,13.83
2017-06-09T13:23:12.447Z,15.10
2017-06-09T13:25:40.695Z,15.80
2017-06-09T13:28:09.058Z,14.40
2017-06-09T13:30:37.255Z,14.67
2017-06-09T13:33:05.459Z,15.13
2017-06-09T13:35:33.847Z,16.17
2017-06-09T13:38:01.999Z,16.40
2017-06-09T13:40:30.150Z,17.40
2017-06-09T13:42:58.567Z,16.83
2017-06-09T13:45:26.812Z,17.10
2017-06-09T13:47:55.003Z,16.90
2017-06-09T13:50:23.383Z,19.53
2017-06-09T13:52:51.495Z,18.60
2017-06-09T13:55:19.723Z,19.90
2017-06-09T13:57:48.091Z,19.17
2017-06-09T14:00:16.302Z,20.80
2017-06-09T14:02:44.607Z,18.57
2017-06-09T14:05:12.991Z,19.93
2017-06-09T14:07:41.239Z,19.10
2017-06-09T14:10:09.392Z,19.23
2017-06-09T14:12:37.734Z,21.03
2017-06-09T14:15:05.847Z,19.93
2017-06-09T14:17:34.079Z,18.97
2017-06-09T14:20:02.524Z,19.60
2017-06-09T14:22:30.679Z,18.23
2017-06-09T14:24:58.919Z,18.10
2017-06-09T14:27:27.175Z,18.77
2017-06-09T14:29:55.331Z,18.77
2017-06-09T14:32:23.568Z,19.80
2017-06-09T14:34:51.950Z,21.07
2017-06-09T14:37:20.139Z,18.73
2017-06-09T14:39:48.399Z,22.33
2017-06-09T14:42:16.695Z,18.90
2017-06-09T14:44:44.855Z,21.73
2017-06-09T14:47:13.067Z,20.03
2017-06-09T14:49:41.379Z,20.60
2017-06-09T14:52:09.499Z,19.87
2017-06-09T14:54:37.663Z,19.77
2017-06-09T14:57:05.975Z,21.83
2017-06-09T14:59:34.242Z,20.53
2017-06-09T15:02:02.407Z,20.80
2017-06-09T15:04:30.987Z,21.00
2017-06-09T15:06:59.231Z,22.80
2017-06-09T15:09:27.474Z,21.30
2017-06-09T15:11:55.763Z,20.83
2017-06-09T15:14:23.903Z,20.17
2017-06-09T15:16:52.143Z,21.47
2017-06-09T15:19:20.515Z,21.77
2017-06-09T15:21:48.747Z,19.90
2017-06-09T15:24:16.979Z,20.53
2017-06-09T15:26:45.316Z,20.77
2017-06-09T15:29:13.512Z,19.80
2017-06-09T15:31:41.747Z,18.93
2017-06-09T15:34:10.155Z,21.60
2017-06-09T15:36:38.352Z,23.97
2017-06-09T15:39:07.154Z,22.03
2017-06-09T15:41:35.527Z,23.43
2017-06-09T15:44:03.723Z,23.77
2017-06-09T15:46:31.872Z,22.07
2017-06-09T15:49:00.207Z,22.00
2017-06-09T15:51:28.411Z,21.73
2017-06-09T15:53:56.655Z,20.47
2017-06-09T15:56:25.027Z,19.47
2017-06-09T15:58:53.267Z,19.43
2017-06-09T16:01:21.703Z,21.30
2017-06-09T16:03:50.128Z,20.60
2017-06-09T16:06:18.523Z,22.07
2017-06-09T16:08:46.634Z,22.80
2017-06-09T16:11:15.125Z,23.17
2017-06-09T16:13:43.291Z,24.30
2017-06-09T16:16:11.482Z,21.80
2017-06-09T16:18:39.862Z,23.50
2017-06-09T16:21:08.115Z,23.40
2017-06-09T16:23:37.523Z,23.37
2017-06-09T16:26:05.875Z,25.57
2017-06-09T16:28:34.098Z,23.90
2017-06-09T16:31:02.340Z,25.00
2017-06-09T16:33:30.911Z,24.03
2017-06-09T16:35:59.413Z,23.10
2017-06-09T16:38:27.583Z,24.77
2017-06-09T16:40:57.583Z,24.57
2017-06-09T16:43:25.731Z,23.97
2017-06-09T16:45:53.958Z,25.17
2017-06-09T16:48:22.465Z,24.63
2017-06-09T16:50:50.584Z,23.43
2017-06-09T16:53:18.868Z,24.07
2017-06-09T16:55:47.226Z,23.97
2017-06-09T16:58:15.463Z,24.00
2017-06-09T17:00:43.685Z,23.17
2017-06-09T17:03:12.071Z,23.30
2017-06-09T17:05:40.341Z,23.57
2017-06-09T17:08:08.532Z,23.50
2017-06-09T17:10:37.546Z,24.43
2017-06-09T17:13:05.712Z,24.17
2017-06-09T17:15:33.947Z,24.20
2017-06-09T17:18:02.367Z,26.03
2017-06-09T17:20:30.691Z,25.17
2017-06-09T17:22:58.891Z,23.97
2017-06-09T17:25:27.240Z,25.30
2017-06-09T17:27:55.460Z,22.80
2017-06-09T17:30:23.708Z,23.60
2017-06-09T17:32:52.052Z,23.07
2017-06-09T17:35:20.269Z,24.00
2017-06-09T17:37:48.479Z,24.47
2017-06-09T17:40:16.779Z,24.50
2017-06-09T17:42:44.943Z,24.40
2017-06-09T17:45:13.152Z,25.30
2017-06-09T17:47:41.496Z,26.57
2017-06-09T17:50:09.663Z,26.40
2017-06-09T17:52:37.854Z,26.93
2017-06-09T17:55:06.306Z,26.13
2017-06-09T17:57:34.511Z,26.20
2017-06-09T18:00:02.668Z,27.00
2017-06-09T18:02:31.015Z,23.10
2017-06-09T18:04:59.251Z,23.57
2017-06-09T18:07:28.922Z,24.63
2017-06-09T18:09:57.292Z,26.60
2017-06-09T18:12:25.571Z,26.80
2017-06-09T18:14:53.825Z,25.73
2017-06-09T18:17:22.132Z,26.33
2017-06-09T18:19:50.371Z,24.87
2017-06-09T18:22:18.631Z,24.40
2017-06-09T18:24:47.008Z,26.00
2017-06-09T18:27:15.255Z,27.30
2017-06-09T18:29:43.372Z,24.17
2017-06-09T18:32:11.715Z,26.77
2017-06-09T18:34:39.920Z,25.63
2017-06-09T18:37:08.120Z,25.17
2017-06-09T18:39:36.503Z,25.33
2017-06-09T18:42:04.709Z,25.07
2017-06-09T18:44:33.024Z,25.60
2017-06-09T18:47:01.328Z,24.87
2017-06-09T18:49:29.455Z,23.20
2017-06-09T18:51:57.647Z,22.73
2017-06-09T18:54:26.032Z,23.37
2017-06-09T18:56:54.160Z,22.23
2017-06-09T18:59:22.353Z,23.83
2017-06-09T19:01:50.699Z,23.30
2017-06-09T19:04:18.864Z,24.27
2017-06-09T19:06:47.119Z,25.50
2017-06-09T19:09:15.464Z,25.20
2017-06-09T19:11:43.723Z,26.10
2017-06-09T19:14:11.912Z,27.30
2017-06-09T19:16:40.240Z,29.20
2017-06-09T19:19:08.459Z,28.57
2017-06-09T19:21:36.629Z,28.93
2017-06-09T19:24:04.955Z,25.27
2017-06-09T19:26:33.095Z,26.17
2017-06-09T19:29:01.207Z,27.33
2017-06-09T19:31:29.555Z,27.03
2017-06-09T19:33:57.700Z,31.27
2017-06-09T19:36:25.890Z,31.27
2017-06-09T19:38:54.278Z,28.60
2017-06-09T19:41:22.474Z,31.20
2017-06-09T19:43:50.707Z,29.20
2017-06-09T19:46:19.043Z,29.97
2017-06-09T19:48:47.230Z,29.73
2017-06-09T19:51:15.378Z,28.23
2017-06-09T19:53:43.700Z,31.10
2017-06-09T19:56:11.947Z,29.70
2017-06-09T19:58:40.603Z,29.23
2017-06-09T20:01:08.977Z,31.73
2017-06-09T20:03:37.135Z,27.90
2017-06-09T20:06:05.329Z,30.23
2017-06-09T20:08:33.611Z,32.30
2017-06-09T20:11:01.815Z,31.70
2017-06-09T20:13:30.161Z,32.70
2017-06-09T20:15:58.507Z,30.70
2017-06-09T20:18:26.699Z,30.70
2017-06-09T20:20:54.927Z,30.70
2017-06-09T20:23:23.255Z,34.40
2017-06-09T20:25:51.455Z,30.50
2017-06-09T20:28:19.624Z,35.10
2017-06-09T20:30:48.007Z,33.83
2017-06-09T20:33:16.215Z,34.20
2017-06-09T20:35:44.362Z,31.43
2017-06-09T20:38:12.612Z,34.50
2017-06-09T20:40:40.780Z,32.00
2017-06-09T20:43:08.988Z,34.67
2017-06-09T20:45:37.735Z,34.33
2017-06-09T20:48:05.967Z,33.63
2017-06-09T20:50:34.126Z,34.13
2017-06-09T20:53:02.472Z,34.13
2017-06-09T20:55:30.715Z,33.90
2017-06-09T20:57:58.917Z,33.77
2017-06-09T21:00:27.207Z,35.20
2017-06-09T21:02:55.363Z,34.10
2017-06-09T21:05:23.544Z,32.27
2017-06-09T21:07:51.988Z,32.63
2017-06-09T21:10:20.138Z,32.00
2017-06-09T21:12:48.323Z,33.93
2017-06-09T21:15:16.655Z,33.60
2017-06-09T21:17:44.887Z,32.93
2017-06-09T21:20:13.132Z,32.70
2017-06-09T21:22:41.455Z,35.20
2017-06-09T21:25:09.679Z,34.17
2017-06-09T21:27:37.883Z,34.00
2017-06-09T21:30:06.256Z,35.27
2017-06-09T21:32:34.404Z,33.73
2017-06-09T21:35:02.635Z,36.53
2017-06-09T21:37:30.975Z,34.93
2017-06-09T21:39:59.203Z,35.27
2017-06-09T21:42:27.399Z,35.37
2017-06-09T21:44:55.727Z,34.87
2017-06-09T21:47:24.003Z,35.20
2017-06-09T21:49:52.199Z,35.67
2017-06-09T21:52:20.647Z,32.53
2017-06-09T21:54:48.815Z,35.50
2017-06-09T21:57:17.063Z,34.80
2017-06-09T21:59:45.406Z,36.00
2017-06-09T22:02:14.183Z,38.70
2017-06-09T22:04:42.335Z,39.00
2017-06-09T22:07:10.675Z,38.17
2017-06-09T22:09:38.808Z,38.03
2017-06-09T22:12:07.041Z,40.77
2017-06-09T22:14:35.419Z,39.00
2017-06-09T22:17:03.725Z,39.67
2017-06-09T22:19:31.931Z,37.50
2017-06-09T22:22:00.283Z,42.10
2017-06-09T22:24:28.435Z,39.33
2017-06-09T22:26:56.688Z,38.67
2017-06-09T22:29:25.028Z,38.10
2017-06-09T22:31:53.405Z,36.27
2017-06-09T22:34:21.643Z,34.90
2017-06-09T22:36:49.943Z,37.00
2017-06-09T22:39:18.143Z,35.20
2017-06-09T22:41:46.263Z,35.27
2017-06-09T22:44:14.651Z,33.87
2017-06-09T22:46:42.928Z,35.10
2017-06-09T22:49:11.553Z,36.30
2017-06-09T22:51:39.892Z,36.07
2017-06-09T22:54:09.003Z,36.03
2017-06-09T22:56:37.212Z,38.70
2017-06-09T22:59:05.463Z,38.27
2017-06-09T23:01:33.668Z,35.27
2017-06-09T23:04:01.867Z,37.20
2017-06-09T23:06:30.123Z,37.53
2017-06-09T23:08:58.285Z,35.93
2017-06-09T23:11:26.527Z,38.63
2017-06-09T23:13:54.851Z,39.40
2017-06-09T23:16:22.999Z,40.80
2017-06-09T23:18:51.326Z,37.93
2017-06-09T23:21:19.763Z,40.13
2017-06-09T23:23:48.007Z,38.30
2017-06-09T23:26:16.375Z,40.93
2017-06-09T23:28:45.725Z,41.80
2017-06-09T23:31:19.557Z,40.77
2017-06-09T23:33:47.919Z,42.40
2017-06-09T23:36:16.123Z,45.90
2017-06-09T23:38:44.316Z,44.43
2017-06-09T23:41:12.455Z,41.70
2017-06-09T23:43:40.730Z,44.87
2017-06-09T23:46:08.919Z,43.70
2017-06-09T23:48:37.163Z,43.60
2017-06-09T23:51:05.359Z,44.50
2017-06-09T23:53:33.551Z,43.40
2017-06-09T23:56:01.802Z,41.83
2017-06-09T23:58:29.991Z,43.27
